createdAt,value
2022-08-18T00:01:16.689Z,6.95
2022-08-18T00:03:55.597Z,6.45
2022-08-18T00:06:28.370Z,6.35
2022-08-18T00:08:59.184Z,6.57
2022-08-18T00:11:27.805Z,7.20
2022-08-18T00:13:55.919Z,6.38
2022-08-18T00:16:23.966Z,6.47
2022-08-18T00:18:52.012Z,6.78
2022-08-18T00:21:20.241Z,6.65
2022-08-18T00:23:48.326Z,7.07
2022-08-18T00:26:18.192Z,6.82
2022-08-18T00:28:46.211Z,6.90
2022-08-18T00:31:14.236Z,6.78
2022-08-18T00:33:43.683Z,6.70
2022-08-18T00:36:12.048Z,6.85
2022-08-18T00:38:40.661Z,6.20
2022-08-18T00:41:09.226Z,6.45
2022-08-18T00:43:44.258Z,7.60
2022-08-18T00:46:18.067Z,6.32
2022-08-18T00:48:48.831Z,7.03
2022-08-18T00:51:27.294Z,6.43
2022-08-18T00:54:01.638Z,6.97
2022-08-18T00:56:34.879Z,6.75
2022-08-18T00:59:09.391Z,6.82
2022-08-18T01:01:38.903Z,6.50
2022-08-18T01:04:10.850Z,6.32
2022-08-18T01:06:43.655Z,6.53
2022-08-18T01:09:12.209Z,6.88
2022-08-18T01:11:41.693Z,6.18
2022-08-18T01:14:15.843Z,6.32
2022-08-18T01:17:01.720Z,6.70
2022-08-18T01:19:48.045Z,6.75
2022-08-18T01:22:22.730Z,7.65
2022-08-18T01:25:10.782Z,7.05
2022-08-18T01:27:41.684Z,6.45
2022-08-18T01:30:13.579Z,6.80
2022-08-18T01:32:42.979Z,6.90
2022-08-18T01:35:15.219Z,7.45
2022-08-18T01:37:43.457Z,6.85
2022-08-18T01:41:17.625Z,7.22
2022-08-18T01:43:06.081Z,7.25
2022-08-18T01:45:34.656Z,7.47
2022-08-18T01:48:04.792Z,8.25
2022-08-18T01:50:34.313Z,7.68
2022-08-18T01:53:05.253Z,7.55
2022-08-18T01:55:34.931Z,7.47
2022-08-18T01:58:03.275Z,7.93
2022-08-18T02:00:32.339Z,8.10
2022-08-18T02:03:02.985Z,7.25
2022-08-18T02:05:35.672Z,8.40
2022-08-18T02:08:04.351Z,8.05
2022-08-18T02:10:32.538Z,7.57
2022-08-18T02:13:02.059Z,8.45
2022-08-18T02:15:30.085Z,9.00
2022-08-18T02:17:58.246Z,8.60
2022-08-18T02:20:26.526Z,8.05
2022-08-18T02:22:54.748Z,8.23
2022-08-18T02:25:23.267Z,8.93
2022-08-18T02:27:51.560Z,9.27
2022-08-18T02:30:21.695Z,8.38
2022-08-18T02:32:50.215Z,9.02
2022-08-18T02:35:18.465Z,8.98
2022-08-18T02:37:48.378Z,9.10
2022-08-18T02:40:18.012Z,9.65
2022-08-18T02:42:46.905Z,9.73
2022-08-18T02:45:15.683Z,9.30
2022-08-18T02:47:46.084Z,10.35
2022-08-18T02:50:16.937Z,10.60
2022-08-18T02:52:45.062Z,10.18
2022-08-18T02:55:13.322Z,9.15
2022-08-18T02:57:44.030Z,10.25
2022-08-18T03:00:15.017Z,9.85
2022-08-18T03:02:48.572Z,10.57
2022-08-18T03:05:17.213Z,11.77
2022-08-18T03:07:45.489Z,9.82
2022-08-18T03:10:31.587Z,13.82
2022-08-18T03:13:02.225Z,11.48
2022-08-18T03:15:30.269Z,13.13
2022-08-18T03:18:00.914Z,13.70
2022-08-18T03:20:31.001Z,14.32
2022-08-18T03:23:05.814Z,13.40
2022-08-18T03:29:59.689Z,14.00
2022-08-18T03:32:58.122Z,14.80
2022-08-18T03:36:40.205Z,13.40
2022-08-18T05:38:54.809Z,12.35
2022-08-18T05:41:29.018Z,12.73
2022-08-18T05:43:59.316Z,12.50
2022-08-18T05:46:39.026Z,12.65
2022-08-18T05:49:08.084Z,12.00
2022-08-18T05:51:42.113Z,12.70
2022-08-18T05:54:30.137Z,13.05
2022-08-18T05:57:03.602Z,12.50
2022-08-18T05:59:34.560Z,11.45
2022-08-18T06:02:08.877Z,11.75
2022-08-18T06:04:43.890Z,11.32
2022-08-18T06:07:16.980Z,11.40
2022-08-18T06:09:50.667Z,11.10
2022-08-18T06:12:28.766Z,11.43
2022-08-18T06:15:14.468Z,10.35
2022-08-18T06:18:20.276Z,10.07
2022-08-18T06:21:14.434Z,9.05
2022-08-18T06:23:48.784Z,9.43
2022-08-18T06:26:28.475Z,10.65
2022-08-18T06:29:17.223Z,9.85
2022-08-18T06:31:52.598Z,9.60
2022-08-18T06:34:26.774Z,10.00
2022-08-18T06:36:58.616Z,10.18
2022-08-18T06:39:33.205Z,10.02
2022-08-18T06:42:05.615Z,9.90
2022-08-18T06:44:37.163Z,10.13
2022-08-18T06:47:12.938Z,9.68
2022-08-18T06:49:46.654Z,10.32
2022-08-18T06:52:29.197Z,10.10
2022-08-18T06:54:59.400Z,9.88
2022-08-18T06:57:32.206Z,9.75
2022-08-18T07:00:03.355Z,9.02
2022-08-18T07:02:54.319Z,9.93
2022-08-18T07:05:25.635Z,9.23
2022-08-18T07:08:19.454Z,9.88
2022-08-18T07:10:49.466Z,8.60
2022-08-18T07:13:25.540Z,8.35
2022-08-18T07:17:08.019Z,8.13
2022-08-18T07:24:59.604Z,7.53
2022-08-18T08:54:30.551Z,6.80
2022-08-18T09:25:30.111Z,6.32
2022-08-18T09:28:15.495Z,5.95
2022-08-18T09:31:20.078Z,6.50
2022-08-18T09:34:11.103Z,6.72
2022-08-18T09:36:54.764Z,5.93
2022-08-18T09:39:53.911Z,6.55
2022-08-18T09:42:33.857Z,5.93
2022-08-18T09:45:59.759Z,6.25
2022-08-18T09:48:33.172Z,6.13
2022-08-18T09:51:33.626Z,5.93
2022-08-18T09:54:21.721Z,4.93
2022-08-18T09:57:16.710Z,5.40
2022-08-18T10:00:24.401Z,5.57
2022-08-18T10:03:31.226Z,4.45
2022-08-18T10:06:26.977Z,5.00
2022-08-18T10:09:26.937Z,5.15
2022-08-18T10:12:20.739Z,4.88
2022-08-18T10:15:10.505Z,4.30
2022-08-18T10:17:55.762Z,4.50
2022-08-18T10:20:39.319Z,4.95
2022-08-18T10:23:11.641Z,4.30
2022-08-18T10:25:48.348Z,4.25
2022-08-18T10:28:51.994Z,4.75
2022-08-18T10:31:24.099Z,4.20
2022-08-18T10:34:16.324Z,4.57
2022-08-18T10:36:54.965Z,4.40
2022-08-18T10:39:44.181Z,5.03
2022-08-18T10:42:23.734Z,4.53
2022-08-18T10:45:09.494Z,5.00
2022-08-18T10:47:38.407Z,4.57
2022-08-18T10:50:20.153Z,5.25
2022-08-18T10:53:33.150Z,4.82
2022-08-18T10:56:01.341Z,4.88
2022-08-18T10:59:05.602Z,4.63
2022-08-18T11:02:05.135Z,4.30
2022-08-18T11:04:38.967Z,4.57
2022-08-18T11:07:11.978Z,5.30
2022-08-18T11:09:42.202Z,5.00
2022-08-18T11:12:51.098Z,5.40
2022-08-18T11:15:29.045Z,5.63
2022-08-18T11:18:31.597Z,4.72
2022-08-18T11:21:25.938Z,5.30
2022-08-18T11:24:07.100Z,5.88
2022-08-18T11:26:38.914Z,5.43
2022-08-18T11:29:28.840Z,4.53
2022-08-18T11:32:05.321Z,4.45
2022-08-18T11:34:41.223Z,3.90
2022-08-18T11:37:24.559Z,3.38
2022-08-18T11:39:55.634Z,3.50
2022-08-18T11:42:31.583Z,3.70
2022-08-18T11:45:08.864Z,4.05
2022-08-18T11:47:39.679Z,3.75
2022-08-18T11:50:11.037Z,3.50
2022-08-18T11:52:53.704Z,3.67
2022-08-18T11:55:32.130Z,3.40
2022-08-18T11:58:01.001Z,2.92
2022-08-18T12:00:44.328Z,3.05
2022-08-18T12:03:24.224Z,3.22
2022-08-18T12:08:58.893Z,2.95
2022-08-18T12:11:31.203Z,3.70
2022-08-18T12:14:31.161Z,3.47
2022-08-18T12:16:55.330Z,3.40
2022-08-18T12:19:28.096Z,3.00
2022-08-18T12:21:59.061Z,3.40
2022-08-18T12:27:22.243Z,3.40
2022-08-18T12:29:52.202Z,3.50
2022-08-18T12:32:49.012Z,3.38
2022-08-18T12:35:13.950Z,2.88
2022-08-18T12:40:33.837Z,2.80
2022-08-18T12:43:02.824Z,2.88
2022-08-18T12:45:32.596Z,3.35
2022-08-18T12:48:04.370Z,2.70
2022-08-18T12:50:42.623Z,3.00
2022-08-18T12:56:25.790Z,3.15
2022-08-18T12:58:55.584Z,2.90
2022-08-18T13:01:25.704Z,2.80
2022-08-18T13:04:10.852Z,2.88
2022-08-18T13:06:54.095Z,2.67
2022-08-18T13:09:47.654Z,3.05
2022-08-18T13:12:20.121Z,2.60
2022-08-18T13:14:50.892Z,2.60
2022-08-18T13:17:32.496Z,2.50
2022-08-18T13:20:04.674Z,2.25
2022-08-18T13:22:34.568Z,2.70
2022-08-18T13:25:03.787Z,2.42
2022-08-18T13:27:35.940Z,2.45
2022-08-18T13:30:30.251Z,2.28
2022-08-18T13:33:02.283Z,2.50
2022-08-18T13:35:37.943Z,2.47
2022-08-18T13:38:17.076Z,2.53
2022-08-18T13:40:50.539Z,2.58
2022-08-18T13:43:23.407Z,2.40
2022-08-18T13:45:52.842Z,2.78
2022-08-18T13:48:23.686Z,2.60
2022-08-18T13:50:53.873Z,2.63
2022-08-18T13:53:27.288Z,2.60
2022-08-18T13:55:59.052Z,2.88
2022-08-18T13:58:28.454Z,2.47
2022-08-18T14:01:22.604Z,2.33
2022-08-18T14:03:49.951Z,2.40
2022-08-18T14:06:23.025Z,2.50
2022-08-18T14:08:54.985Z,2.80
2022-08-18T14:11:32.958Z,2.20
2022-08-18T14:14:03.583Z,2.60
2022-08-18T14:16:33.416Z,2.22
2022-08-18T14:19:17.635Z,2.45
2022-08-18T14:22:06.663Z,2.55
2022-08-18T14:25:00.712Z,2.70
2022-08-18T14:27:34.977Z,2.75
2022-08-18T14:30:06.751Z,2.50
2022-08-18T14:32:42.086Z,2.53
2022-08-18T14:35:32.992Z,2.65
2022-08-18T14:38:09.770Z,2.60
2022-08-18T14:40:43.235Z,2.70
2022-08-18T14:43:12.340Z,2.70
2022-08-18T14:45:45.893Z,2.85
2022-08-18T14:48:14.874Z,2.60
2022-08-18T14:50:49.064Z,2.63
2022-08-18T14:53:20.308Z,2.80
2022-08-18T14:55:52.621Z,2.70
2022-08-18T14:58:22.160Z,2.72
2022-08-18T15:00:54.263Z,2.72
2022-08-18T15:03:31.450Z,2.80
2022-08-18T15:06:04.409Z,2.83
2022-08-18T15:08:34.477Z,2.80
2022-08-18T15:11:11.785Z,2.72
2022-08-18T15:13:43.590Z,2.38
2022-08-18T15:16:14.765Z,2.63
2022-08-18T15:18:45.055Z,2.30
2022-08-18T15:21:35.530Z,2.78
2022-08-18T15:24:25.696Z,2.72
2022-08-18T15:26:57.990Z,2.47
2022-08-18T15:32:16.870Z,2.67
2022-08-18T15:34:50.931Z,2.80
2022-08-18T15:37:20.530Z,2.55
2022-08-18T15:40:04.018Z,2.97
2022-08-18T15:42:33.861Z,2.70
2022-08-18T15:45:11.580Z,2.60
2022-08-18T15:47:41.586Z,2.72
2022-08-18T15:50:25.642Z,2.55
2022-08-18T15:52:58.000Z,2.50
2022-08-18T15:55:29.671Z,2.70
2022-08-18T15:58:11.134Z,2.42
2022-08-18T16:00:42.744Z,2.40
2022-08-18T16:03:15.314Z,2.45
2022-08-18T16:05:51.691Z,2.90
2022-08-18T16:08:23.008Z,2.47
2022-08-18T16:10:51.359Z,2.60
2022-08-18T16:13:21.306Z,2.60
2022-08-18T16:15:50.456Z,2.53
2022-08-18T16:18:20.372Z,2.60
2022-08-18T16:20:48.787Z,2.45
2022-08-18T16:23:21.193Z,2.65
2022-08-18T16:25:50.018Z,2.55
2022-08-18T16:28:18.398Z,2.50
2022-08-18T16:30:48.491Z,2.60
2022-08-18T16:33:17.069Z,2.30
2022-08-18T16:35:47.694Z,2.60
2022-08-18T16:38:16.044Z,2.40
2022-08-18T16:40:44.599Z,2.58
2022-08-18T16:43:14.829Z,2.55
2022-08-18T16:45:43.680Z,2.25
2022-08-18T16:48:16.806Z,2.50
2022-08-18T16:50:49.539Z,2.08
2022-08-18T16:53:18.491Z,2.30
2022-08-18T16:55:46.882Z,2.78
2022-08-18T16:58:32.125Z,2.40
2022-08-18T17:01:20.384Z,2.55
2022-08-18T17:04:13.640Z,2.20
2022-08-18T17:06:47.771Z,2.40
2022-08-18T17:09:16.589Z,2.58
2022-08-18T17:11:51.712Z,2.33
2022-08-18T17:14:21.906Z,2.10
2022-08-18T17:16:54.978Z,2.28
2022-08-18T17:19:27.568Z,1.88
2022-08-18T17:21:55.934Z,2.03
2022-08-18T17:24:31.440Z,2.10
2022-08-18T17:27:12.074Z,2.08
2022-08-18T17:30:01.851Z,2.00
2022-08-18T17:35:14.033Z,2.30
2022-08-18T17:37:49.527Z,1.80
2022-08-18T17:40:22.255Z,1.98
2022-08-18T17:42:53.594Z,2.40
2022-08-18T17:45:23.187Z,2.22
2022-08-18T17:47:58.003Z,2.13
2022-08-18T17:50:49.433Z,2.10
2022-08-18T17:53:18.485Z,2.20
2022-08-18T17:55:50.908Z,2.00
2022-08-18T17:58:27.214Z,2.30
2022-08-18T18:00:55.538Z,2.20
2022-08-18T18:03:23.882Z,2.33
2022-08-18T18:06:09.952Z,2.33
2022-08-18T18:08:54.510Z,2.05
2022-08-18T18:11:28.706Z,2.30
2022-08-18T18:13:57.034Z,2.20
2022-08-18T18:16:29.746Z,2.30
2022-08-18T18:19:02.849Z,2.20
2022-08-18T18:22:00.789Z,2.40
2022-08-18T18:24:31.451Z,2.30
2022-08-18T18:27:00.065Z,2.38
2022-08-18T18:29:35.610Z,2.70
2022-08-18T18:32:08.711Z,2.40
2022-08-18T18:34:39.839Z,2.47
2022-08-18T18:37:27.107Z,2.50
2022-08-18T18:39:57.692Z,2.30
2022-08-18T18:42:29.587Z,2.33
2022-08-18T18:45:00.264Z,2.50
2022-08-18T18:47:45.194Z,2.60
2022-08-18T18:50:22.369Z,2.50
2022-08-18T18:53:05.908Z,2.80
2022-08-18T18:55:39.885Z,2.80
2022-08-18T18:58:18.721Z,2.60
2022-08-18T19:00:53.805Z,2.78
2022-08-18T19:03:29.580Z,2.30
2022-08-18T19:06:26.267Z,2.20
2022-08-18T19:09:04.191Z,2.45
2022-08-18T19:11:43.621Z,2.83
2022-08-18T19:14:18.063Z,2.55
2022-08-18T19:16:52.648Z,2.63
2022-08-18T19:19:37.021Z,2.85
2022-08-18T19:22:13.424Z,3.05
2022-08-18T19:24:55.009Z,2.85
2022-08-18T19:27:31.913Z,3.22
2022-08-18T19:30:06.337Z,3.13
2022-08-18T19:32:40.871Z,2.97
2022-08-18T19:35:15.053Z,3.03
2022-08-18T19:38:02.850Z,2.72
2022-08-18T19:40:45.124Z,2.90
2022-08-18T19:43:26.696Z,2.83
2022-08-18T19:46:05.613Z,3.20
2022-08-18T19:48:44.105Z,2.70
2022-08-18T19:51:20.731Z,2.95
2022-08-18T19:54:04.697Z,2.70
2022-08-18T19:56:47.956Z,2.90
2022-08-18T19:59:35.143Z,2.97
2022-08-18T20:02:21.038Z,3.10
2022-08-18T20:05:04.703Z,2.88
2022-08-18T20:08:07.973Z,2.67
2022-08-18T20:10:49.037Z,2.90
2022-08-18T20:13:33.039Z,2.97
2022-08-18T20:16:35.547Z,2.97
2022-08-18T20:19:45.511Z,2.80
2022-08-18T20:22:31.943Z,2.92
2022-08-18T20:25:06.211Z,3.22
2022-08-18T20:27:40.393Z,3.13
2022-08-18T20:30:48.852Z,3.03
2022-08-18T20:33:29.658Z,3.17
2022-08-18T20:36:13.128Z,2.88
2022-08-18T20:38:45.725Z,3.00
2022-08-18T20:41:38.978Z,3.00
2022-08-18T20:44:50.468Z,3.08
2022-08-18T20:47:39.067Z,3.00
2022-08-18T20:50:33.836Z,3.28
2022-08-18T20:53:09.470Z,3.50
2022-08-18T20:55:49.392Z,3.33
2022-08-18T20:58:26.439Z,3.13
2022-08-18T21:00:58.329Z,3.33
2022-08-18T21:03:38.049Z,3.45
2022-08-18T21:06:07.581Z,3.67
2022-08-18T21:08:39.089Z,3.30
2022-08-18T21:11:11.213Z,3.58
2022-08-18T21:13:52.858Z,3.53
2022-08-18T21:16:39.171Z,3.40
2022-08-18T21:19:13.984Z,3.45
2022-08-18T21:21:46.691Z,3.55
2022-08-18T21:24:28.511Z,3.45
2022-08-18T21:26:59.212Z,3.55
2022-08-18T21:29:46.864Z,3.38
2022-08-18T21:32:20.265Z,3.53
2022-08-18T21:34:52.206Z,3.20
2022-08-18T21:37:21.596Z,3.72
2022-08-18T21:39:53.064Z,3.63
2022-08-18T21:42:26.198Z,3.63
2022-08-18T21:44:56.422Z,3.60
2022-08-18T21:47:31.939Z,3.70
2022-08-18T21:50:11.488Z,3.70
2022-08-18T21:52:41.864Z,3.60
2022-08-18T21:55:19.985Z,3.92
2022-08-18T21:58:01.006Z,3.85
2022-08-18T22:00:31.887Z,3.67
2022-08-18T22:03:22.003Z,3.55
2022-08-18T22:06:00.855Z,3.80
2022-08-18T22:08:49.683Z,4.07
2022-08-18T22:12:01.313Z,3.97
2022-08-18T22:14:54.096Z,3.80
2022-08-18T22:17:31.375Z,3.53
2022-08-18T22:20:42.231Z,3.85
2022-08-18T22:23:53.598Z,3.90
2022-08-18T22:26:25.565Z,4.20
2022-08-18T22:29:01.282Z,3.60
2022-08-18T22:31:33.694Z,3.58
2022-08-18T22:34:05.201Z,4.00
2022-08-18T22:36:37.644Z,4.50
2022-08-18T22:39:12.717Z,4.25
2022-08-18T22:41:42.122Z,5.00
2022-08-18T22:44:10.548Z,4.63
2022-08-18T22:46:38.873Z,4.78
2022-08-18T22:49:07.175Z,5.10
2022-08-18T22:51:38.289Z,4.82
2022-08-18T22:54:11.054Z,4.85
2022-08-18T22:56:39.597Z,4.50
2022-08-18T22:59:22.521Z,4.60
2022-08-18T23:01:52.240Z,4.57
2022-08-18T23:04:22.852Z,4.63
2022-08-18T23:06:52.747Z,4.82
2022-08-18T23:09:26.104Z,4.80
2022-08-18T23:11:56.958Z,4.70
2022-08-18T23:14:26.017Z,4.57
2022-08-18T23:16:54.405Z,5.20
2022-08-18T23:19:23.008Z,5.07
2022-08-18T23:21:52.353Z,4.50
2022-08-18T23:24:23.082Z,4.45
2022-08-18T23:26:51.751Z,4.70
2022-08-18T23:29:22.562Z,4.32
2022-08-18T23:31:52.094Z,4.50
2022-08-18T23:34:23.049Z,4.43
2022-08-18T23:36:56.593Z,4.57
2022-08-18T23:39:27.080Z,4.30
2022-08-18T23:41:56.285Z,4.38
2022-08-18T23:44:27.509Z,4.15
2022-08-18T23:46:58.257Z,4.45
2022-08-18T23:49:29.219Z,4.70
2022-08-18T23:51:59.138Z,4.05
2022-08-18T23:54:31.418Z,4.65
2022-08-18T23:56:59.804Z,4.65
2022-08-18T23:59:29.652Z,4.40
